sensor_id;sensor_type;location;lat;lon;timestamp;pressure;altitude;pressure_sealevel;temperature;humidity
78485;BME280;67773;50.806;8.776;2024-03-29T00:00:52;97840.97;;;3.88;100.00
78485;BME280;67773;50.806;8.776;2024-03-29T00:03:17;97848.47;;;3.78;100.00
78485;BME280;67773;50.806;8.776;2024-03-29T00:05:43;97854.38;;;3.82;100.00
78485;BME280;67773;50.806;8.776;2024-03-29T00:08:08;97857.34;;;3.75;100.00
78485;BME280;67773;50.806;8.776;2024-03-29T00:10:33;97841.44;;;3.79;100.00
78485;BME280;67773;50.806;8.776;2024-03-29T00:12:59;97840.81;;;3.73;100.00
78485;BME280;67773;50.806;8.776;2024-03-29T00:15:24;97838.44;;;3.69;100.00
78485;BME280;67773;50.806;8.776;2024-03-29T00:17:50;97831.31;;;3.55;100.00
78485;BME280;67773;50.806;8.776;2024-03-29T00:20:16;97827.50;;;3.61;100.00
78485;BME280;67773;50.806;8.776;2024-03-29T00:22:41;97818.97;;;3.57;100.00
78485;BME280;67773;50.806;8.776;2024-03-29T00:25:07;97816.63;;;3.51;100.00
78485;BME280;67773;50.806;8.776;2024-03-29T00:27:32;97820.97;;;3.52;100.00
78485;BME280;67773;50.806;8.776;2024-03-29T00:29:58;97814.19;;;3.48;100.00
78485;BME280;67773;50.806;8.776;2024-03-29T00:32:25;97817.41;;;3.53;100.00
78485;BME280;67773;50.806;8.776;2024-03-29T00:34:51;97807.34;;;3.45;100.00
78485;BME280;67773;50.806;8.776;2024-03-29T00:37:17;97821.28;;;3.46;100.00
78485;BME280;67773;50.806;8.776;2024-03-29T00:39:43;97821.28;;;3.46;100.00
78485;BME280;67773;50.806;8.776;2024-03-29T00:42:09;97815.78;;;3.51;100.00
78485;BME280;67773;50.806;8.776;2024-03-29T00:44:38;97802.94;;;3.46;100.00
78485;BME280;67773;50.806;8.776;2024-03-29T00:47:06;97813.91;;;3.37;100.00
78485;BME280;67773;50.806;8.776;2024-03-29T00:49:31;97793.09;;;3.34;100.00
78485;BME280;67773;50.806;8.776;2024-03-29T00:51:56;97797.91;;;3.41;100.00
78485;BME280;67773;50.806;8.776;2024-03-29T00:54:22;97782.72;;;3.48;100.00
78485;BME280;67773;50.806;8.776;2024-03-29T00:56:50;97783.44;;;3.34;100.00
78485;BME280;67773;50.806;8.776;2024-03-29T00:59:16;97774.56;;;3.37;100.00
78485;BME280;67773;50.806;8.776;2024-03-29T01:01:42;97777.94;;;3.39;100.00
78485;BME280;67773;50.806;8.776;2024-03-29T01:04:07;97779.97;;;3.34;100.00
78485;BME280;67773;50.806;8.776;2024-03-29T01:06:32;97786.56;;;3.41;100.00
78485;BME280;67773;50.806;8.776;2024-03-29T01:08:59;97775.59;;;3.34;100.00
78485;BME280;67773;50.806;8.776;2024-03-29T01:11:24;97776.84;;;3.43;100.00
78485;BME280;67773;50.806;8.776;2024-03-29T01:13:50;97781.63;;;3.52;100.00
78485;BME280;67773;50.806;8.776;2024-03-29T01:16:15;97791.69;;;3.44;100.00
78485;BME280;67773;50.806;8.776;2024-03-29T01:18:40;97805.56;;;3.46;100.00
78485;BME280;67773;50.806;8.776;2024-03-29T01:21:08;97804.00;;;3.42;100.00
78485;BME280;67773;50.806;8.776;2024-03-29T01:23:34;97788.28;;;3.42;100.00
78485;BME280;67773;50.806;8.776;2024-03-29T01:25:59;97782.72;;;3.48;100.00
78485;BME280;67773;50.806;8.776;2024-03-29T01:28:24;97789.66;;;3.49;100.00
78485;BME280;67773;50.806;8.776;2024-03-29T01:30:53;97794.78;;;3.35;100.00
78485;BME280;67773;50.806;8.776;2024-03-29T01:33:19;97796.06;;;3.43;100.00
78485;BME280;67773;50.806;8.776;2024-03-29T01:35:45;97799.97;;;3.52;100.00
78485;BME280;67773;50.806;8.776;2024-03-29T01:38:10;97795.50;;;3.54;100.00
78485;BME280;67773;50.806;8.776;2024-03-29T01:40:36;97801.53;;;3.56;100.00
78485;BME280;67773;50.806;8.776;2024-03-29T01:43:02;97798.41;;;3.65;100.00
78485;BME280;67773;50.806;8.776;2024-03-29T01:45:27;97798.25;;;3.68;100.00
78485;BME280;67773;50.806;8.776;2024-03-29T01:47:54;97810.25;;;3.72;100.00
78485;BME280;67773;50.806;8.776;2024-03-29T01:50:20;97799.44;;;3.79;100.00
78485;BME280;67773;50.806;8.776;2024-03-29T01:52:45;97798.69;;;3.76;100.00
78485;BME280;67773;50.806;8.776;2024-03-29T01:55:11;97794.78;;;3.84;100.00
78485;BME280;67773;50.806;8.776;2024-03-29T01:57:36;97785.97;;;3.85;100.00
78485;BME280;67773;50.806;8.776;2024-03-29T02:00:02;97780.59;;;3.88;100.00
78485;BME280;67773;50.806;8.776;2024-03-29T02:02:31;97788.56;;;3.86;100.00
78485;BME280;67773;50.806;8.776;2024-03-29T02:04:57;97796.84;;;3.94;100.00
78485;BME280;67773;50.806;8.776;2024-03-29T02:07:23;97797.28;;;4.02;100.00
78485;BME280;67773;50.806;8.776;2024-03-29T02:09:48;97785.25;;;4.14;100.00
78485;BME280;67773;50.806;8.776;2024-03-29T02:12:14;97776.53;;;3.98;100.00
78485;BME280;67773;50.806;8.776;2024-03-29T02:14:39;97777.22;;;4.17;100.00
78485;BME280;67773;50.806;8.776;2024-03-29T02:17:06;97793.81;;;4.33;100.00
78485;BME280;67773;50.806;8.776;2024-03-29T02:19:31;97788.53;;;4.33;100.00
78485;BME280;67773;50.806;8.776;2024-03-29T02:21:59;97778.66;;;4.39;100.00
78485;BME280;67773;50.806;8.776;2024-03-29T02:24:25;97767.44;;;4.51;100.00
78485;BME280;67773;50.806;8.776;2024-03-29T02:26:51;97750.22;;;4.45;100.00
78485;BME280;67773;50.806;8.776;2024-03-29T02:29:16;97760.13;;;4.56;100.00
78485;BME280;67773;50.806;8.776;2024-03-29T02:31:42;97744.56;;;4.83;100.00
78485;BME280;67773;50.806;8.776;2024-03-29T02:34:07;97743.59;;;4.70;100.00
78485;BME280;67773;50.806;8.776;2024-03-29T02:36:34;97714.44;;;4.58;100.00
78485;BME280;67773;50.806;8.776;2024-03-29T02:38:59;97709.69;;;4.65;100.00
78485;BME280;67773;50.806;8.776;2024-03-29T02:41:25;97689.81;;;4.75;100.00
78485;BME280;67773;50.806;8.776;2024-03-29T02:43:51;97689.47;;;4.81;100.00
78485;BME280;67773;50.806;8.776;2024-03-29T02:46:17;97684.97;;;4.98;100.00
78485;BME280;67773;50.806;8.776;2024-03-29T02:48:42;97676.91;;;5.01;100.00
78485;BME280;67773;50.806;8.776;2024-03-29T02:51:08;97708.72;;;4.96;100.00
78485;BME280;67773;50.806;8.776;2024-03-29T02:53:33;97716.06;;;5.05;100.00
78485;BME280;67773;50.806;8.776;2024-03-29T02:55:58;97706.28;;;5.07;100.00
78485;BME280;67773;50.806;8.776;2024-03-29T02:58:24;97705.09;;;5.13;100.00
78485;BME280;67773;50.806;8.776;2024-03-29T03:00:49;97705.63;;;5.18;100.00
78485;BME280;67773;50.806;8.776;2024-03-29T03:03:15;97716.84;;;5.21;100.00
78485;BME280;67773;50.806;8.776;2024-03-29T03:05:41;97721.81;;;5.12;100.00
78485;BME280;67773;50.806;8.776;2024-03-29T03:08:07;97727.03;;;4.98;100.00
78485;BME280;67773;50.806;8.776;2024-03-29T03:10:50;97733.63;;;5.05;100.00
78485;BME280;67773;50.806;8.776;2024-03-29T03:13:24;97738.59;;;5.09;100.00
78485;BME280;67773;50.806;8.776;2024-03-29T03:15:49;97749.03;;;5.11;100.00
78485;BME280;67773;50.806;8.776;2024-03-29T03:18:14;97740.22;;;5.12;100.00
78485;BME280;67773;50.806;8.776;2024-03-29T03:20:40;97743.59;;;5.14;100.00
78485;BME280;67773;50.806;8.776;2024-03-29T03:23:06;97744.34;;;5.16;100.00
78485;BME280;67773;50.806;8.776;2024-03-29T03:25:31;97735.25;;;5.21;100.00
78485;BME280;67773;50.806;8.776;2024-03-29T03:27:56;97745.94;;;5.18;100.00
78485;BME280;67773;50.806;8.776;2024-03-29T03:30:22;97745.09;;;5.18;100.00
78485;BME280;67773;50.806;8.776;2024-03-29T03:32:47;97734.75;;;5.15;100.00
78485;BME280;67773;50.806;8.776;2024-03-29T03:35:13;97743.59;;;5.14;100.00
78485;BME280;67773;50.806;8.776;2024-03-29T03:37:38;97734.56;;;5.18;100.00
78485;BME280;67773;50.806;8.776;2024-03-29T03:40:04;97748.00;;;5.13;100.00
78485;BME280;67773;50.806;8.776;2024-03-29T03:42:29;97747.16;;;5.13;100.00
78485;BME280;67773;50.806;8.776;2024-03-29T03:44:55;97742.56;;;5.16;100.00
78485;BME280;67773;50.806;8.776;2024-03-29T03:47:21;97741.72;;;5.16;100.00
78485;BME280;67773;50.806;8.776;2024-03-29T03:49:46;97748.47;;;5.20;100.00
78485;BME280;67773;50.806;8.776;2024-03-29T03:52:11;97746.63;;;5.22;100.00
78485;BME280;67773;50.806;8.776;2024-03-29T03:54:37;97756.19;;;5.23;100.00
78485;BME280;67773;50.806;8.776;2024-03-29T03:57:02;97750.75;;;5.26;100.00
78485;BME280;67773;50.806;8.776;2024-03-29T03:59:27;97758.63;;;5.26;100.00
78485;BME280;67773;50.806;8.776;2024-03-29T04:01:53;97761.25;;;5.26;100.00
78485;BME280;67773;50.806;8.776;2024-03-29T04:04:19;97754.13;;;5.28;100.00
78485;BME280;67773;50.806;8.776;2024-03-29T04:06:44;97749.44;;;5.33;100.00
78485;BME280;67773;50.806;8.776;2024-03-29T04:09:10;97745.28;;;5.29;100.00
78485;BME280;67773;50.806;8.776;2024-03-29T04:11:36;97748.09;;;5.26;100.00
78485;BME280;67773;50.806;8.776;2024-03-29T04:14:01;97732.69;;;5.20;100.00
78485;BME280;67773;50.806;8.776;2024-03-29T04:16:26;97732.88;;;5.17;100.00
78485;BME280;67773;50.806;8.776;2024-03-29T04:18:52;97743.03;;;5.23;100.00
78485;BME280;67773;50.806;8.776;2024-03-29T04:21:17;97737.03;;;5.21;100.00
78485;BME280;67773;50.806;8.776;2024-03-29T04:23:42;97720.66;;;5.16;100.00
78485;BME280;67773;50.806;8.776;2024-03-29T04:26:08;97731.19;;;5.16;100.00
78485;BME280;67773;50.806;8.776;2024-03-29T04:28:33;97742.66;;;5.29;100.00
78485;BME280;67773;50.806;8.776;2024-03-29T04:31:00;97741.91;;;5.13;100.00
78485;BME280;67773;50.806;8.776;2024-03-29T04:33:26;97743.59;;;5.14;100.00
78485;BME280;67773;50.806;8.776;2024-03-29T04:35:57;97744.25;;;5.17;100.00
78485;BME280;67773;50.806;8.776;2024-03-29T04:38:23;97733.06;;;5.14;100.00
78485;BME280;67773;50.806;8.776;2024-03-29T04:40:53;97735.31;;;5.20;100.00
78485;BME280;67773;50.806;8.776;2024-03-29T04:43:21;97719.38;;;5.23;100.00
78485;BME280;67773;50.806;8.776;2024-03-29T04:45:47;97723.94;;;5.19;100.00
78485;BME280;67773;50.806;8.776;2024-03-29T04:48:13;97723.66;;;5.10;100.00
78485;BME280;67773;50.806;8.776;2024-03-29T04:50:39;97720.75;;;5.14;100.00
78485;BME280;67773;50.806;8.776;2024-03-29T04:53:04;97718.13;;;5.14;100.00
78485;BME280;67773;50.806;8.776;2024-03-29T04:55:30;97711.28;;;5.12;100.00
78485;BME280;67773;50.806;8.776;2024-03-29T04:57:56;97715.69;;;5.11;100.00
78485;BME280;67773;50.806;8.776;2024-03-29T05:00:21;97714.06;;;5.09;100.00
78485;BME280;67773;50.806;8.776;2024-03-29T05:02:46;97710.50;;;5.10;100.00
78485;BME280;67773;50.806;8.776;2024-03-29T05:05:12;97698.88;;;5.14;100.00
78485;BME280;67773;50.806;8.776;2024-03-29T05:07:37;97702.84;;;5.21;100.00
78485;BME280;67773;50.806;8.776;2024-03-29T05:10:03;97695.13;;;5.18;100.00
78485;BME280;67773;50.806;8.776;2024-03-29T05:12:37;97691.53;;;5.19;100.00
78485;BME280;67773;50.806;8.776;2024-03-29T05:15:03;97685.34;;;5.20;100.00
78485;BME280;67773;50.806;8.776;2024-03-29T05:17:28;97683.28;;;5.25;100.00
78485;BME280;67773;50.806;8.776;2024-03-29T05:19:54;97689.59;;;5.22;100.00
78485;BME280;67773;50.806;8.776;2024-03-29T05:22:20;97691.38;;;5.22;100.00
78485;BME280;67773;50.806;8.776;2024-03-29T05:24:45;97687.16;;;5.34;100.00
78485;BME280;67773;50.806;8.776;2024-03-29T05:27:14;97689.28;;;5.27;100.00
78485;BME280;67773;50.806;8.776;2024-03-29T05:29:39;97686.03;;;5.24;100.00
78485;BME280;67773;50.806;8.776;2024-03-29T05:32:07;97694.28;;;5.32;100.00
78485;BME280;67773;50.806;8.776;2024-03-29T05:34:33;97694.75;;;5.38;100.00
78485;BME280;67773;50.806;8.776;2024-03-29T05:36:58;97706.09;;;5.39;100.00
78485;BME280;67773;50.806;8.776;2024-03-29T05:39:23;97716.53;;;5.40;100.00
78485;BME280;67773;50.806;8.776;2024-03-29T05:41:48;97720.22;;;5.38;100.00
78485;BME280;67773;50.806;8.776;2024-03-29T05:44:14;97736.00;;;5.38;100.00
78485;BME280;67773;50.806;8.776;2024-03-29T05:46:39;97740.41;;;5.37;100.00
78485;BME280;67773;50.806;8.776;2024-03-29T05:49:05;97737.13;;;5.34;100.00
78485;BME280;67773;50.806;8.776;2024-03-29T05:51:31;97743.78;;;5.39;100.00
78485;BME280;67773;50.806;8.776;2024-03-29T05:53:56;97737.41;;;5.43;100.00
78485;BME280;67773;50.806;8.776;2024-03-29T05:56:22;97727.63;;;5.45;100.00
78485;BME280;67773;50.806;8.776;2024-03-29T05:58:47;97718.69;;;5.48;100.00
78485;BME280;67773;50.806;8.776;2024-03-29T06:01:13;97719.00;;;5.43;100.00
78485;BME280;67773;50.806;8.776;2024-03-29T06:03:38;97729.22;;;5.48;100.00
78485;BME280;67773;50.806;8.776;2024-03-29T06:06:03;97726.13;;;5.56;100.00
78485;BME280;67773;50.806;8.776;2024-03-29T06:08:29;97732.13;;;5.58;100.00
78485;BME280;67773;50.806;8.776;2024-03-29T06:10:54;97733.84;;;5.59;100.00
78485;BME280;67773;50.806;8.776;2024-03-29T06:13:20;97744.84;;;5.65;100.00
78485;BME280;67773;50.806;8.776;2024-03-29T06:16:04;97754.69;;;5.76;100.00
78485;BME280;67773;50.806;8.776;2024-03-29T06:18:48;97752.25;;;5.59;100.00
78485;BME280;67773;50.806;8.776;2024-03-29T06:21:13;97762.03;;;5.57;100.00
78485;BME280;67773;50.806;8.776;2024-03-29T06:23:38;97770.13;;;5.68;100.00
78485;BME280;67773;50.806;8.776;2024-03-29T06:26:04;97766.00;;;5.64;100.00
78485;BME280;67773;50.806;8.776;2024-03-29T06:28:29;97761.75;;;5.61;100.00
78485;BME280;67773;50.806;8.776;2024-03-29T06:30:54;97766.94;;;5.63;100.00
78485;BME280;67773;50.806;8.776;2024-03-29T06:33:20;97768.41;;;5.67;100.00
78485;BME280;67773;50.806;8.776;2024-03-29T06:35:53;97753.47;;;5.67;100.00
78485;BME280;67773;50.806;8.776;2024-03-29T06:38:18;97740.41;;;5.66;100.00
78485;BME280;67773;50.806;8.776;2024-03-29T06:40:43;97734.75;;;5.72;100.00
78485;BME280;67773;50.806;8.776;2024-03-29T06:43:09;97722.25;;;5.75;100.00
78485;BME280;67773;50.806;8.776;2024-03-29T06:45:35;97724.31;;;5.85;100.00
78485;BME280;67773;50.806;8.776;2024-03-29T06:48:04;97720.09;;;5.96;100.00
78485;BME280;67773;50.806;8.776;2024-03-29T06:50:30;97735.31;;;6.05;100.00
78485;BME280;67773;50.806;8.776;2024-03-29T06:52:55;97728.41;;;6.17;100.00
78485;BME280;67773;50.806;8.776;2024-03-29T06:55:20;97730.38;;;6.14;100.00
78485;BME280;67773;50.806;8.776;2024-03-29T06:57:46;97737.75;;;6.08;100.00
78485;BME280;67773;50.806;8.776;2024-03-29T07:00:11;97738.91;;;6.04;100.00
78485;BME280;67773;50.806;8.776;2024-03-29T07:02:37;97741.28;;;6.22;100.00
78485;BME280;67773;50.806;8.776;2024-03-29T07:05:02;97751.34;;;6.29;100.00
78485;BME280;67773;50.806;8.776;2024-03-29T07:07:32;97746.84;;;6.17;100.00
78485;BME280;67773;50.806;8.776;2024-03-29T07:09:57;97746.38;;;6.11;100.00
78485;BME280;67773;50.806;8.776;2024-03-29T07:12:23;97738.97;;;6.17;100.00
78485;BME280;67773;50.806;8.776;2024-03-29T07:14:48;97746.34;;;6.25;100.00
78485;BME280;67773;50.806;8.776;2024-03-29T07:17:13;97758.94;;;6.34;100.00
78485;BME280;67773;50.806;8.776;2024-03-29T07:19:39;97747.66;;;6.32;100.00
78485;BME280;67773;50.806;8.776;2024-03-29T07:22:04;97755.22;;;6.51;100.00
78485;BME280;67773;50.806;8.776;2024-03-29T07:24:30;97748.34;;;6.48;100.00
78485;BME280;67773;50.806;8.776;2024-03-29T07:26:55;97751.66;;;6.64;100.00
78485;BME280;67773;50.806;8.776;2024-03-29T07:29:20;97766.97;;;6.45;100.00
78485;BME280;67773;50.806;8.776;2024-03-29T07:31:46;97758.59;;;6.53;100.00
78485;BME280;67773;50.806;8.776;2024-03-29T07:34:11;97771.81;;;6.65;100.00
78485;BME280;67773;50.806;8.776;2024-03-29T07:36:37;97775.38;;;6.64;100.00
78485;BME280;67773;50.806;8.776;2024-03-29T07:39:04;97785.53;;;6.71;100.00
78485;BME280;67773;50.806;8.776;2024-03-29T07:41:29;97784.03;;;6.66;100.00
78485;BME280;67773;50.806;8.776;2024-03-29T07:43:56;97773.91;;;6.60;100.00
78485;BME280;67773;50.806;8.776;2024-03-29T07:46:27;97788.16;;;6.58;100.00
78485;BME280;67773;50.806;8.776;2024-03-29T07:48:53;97792.16;;;6.63;100.00
78485;BME280;67773;50.806;8.776;2024-03-29T07:51:18;97789.41;;;6.65;100.00
78485;BME280;67773;50.806;8.776;2024-03-29T07:53:44;97784.81;;;6.69;100.00
78485;BME280;67773;50.806;8.776;2024-03-29T07:56:09;97781.56;;;6.78;100.00
78485;BME280;67773;50.806;8.776;2024-03-29T07:58:34;97790.03;;;6.95;100.00
78485;BME280;67773;50.806;8.776;2024-03-29T08:01:00;97796.59;;;6.90;100.00
78485;BME280;67773;50.806;8.776;2024-03-29T08:03:25;97795.56;;;7.05;100.00
78485;BME280;67773;50.806;8.776;2024-03-29T08:05:56;97786.78;;;6.92;100.00
78485;BME280;67773;50.806;8.776;2024-03-29T08:08:22;97800.69;;;6.94;100.00
78485;BME280;67773;50.806;8.776;2024-03-29T08:10:47;97799.75;;;6.95;100.00
78485;BME280;67773;50.806;8.776;2024-03-29T08:13:12;97793.34;;;6.99;100.00
78485;BME280;67773;50.806;8.776;2024-03-29T08:15:41;97792.56;;;6.97;100.00
78485;BME280;67773;50.806;8.776;2024-03-29T08:18:06;97791.78;;;7.09;100.00
78485;BME280;67773;50.806;8.776;2024-03-29T08:20:31;97803.19;;;7.22;100.00
78485;BME280;67773;50.806;8.776;2024-03-29T08:22:59;97801.69;;;7.18;100.00
78485;BME280;67773;50.806;8.776;2024-03-29T08:25:24;97801.06;;;7.15;100.00
78485;BME280;67773;50.806;8.776;2024-03-29T08:27:52;97796.34;;;7.20;100.00
78485;BME280;67773;50.806;8.776;2024-03-29T08:30:26;97805.84;;;7.22;100.00
78485;BME280;67773;50.806;8.776;2024-03-29T08:32:53;97798.19;;;7.18;100.00
78485;BME280;67773;50.806;8.776;2024-03-29T08:35:19;97805.00;;;7.35;100.00
78485;BME280;67773;50.806;8.776;2024-03-29T08:37:45;97806.25;;;7.29;100.00
78485;BME280;67773;50.806;8.776;2024-03-29T08:40:11;97807.06;;;7.17;100.00
78485;BME280;67773;50.806;8.776;2024-03-29T08:42:36;97810.38;;;7.33;100.00
78485;BME280;67773;50.806;8.776;2024-03-29T08:45:03;97811.34;;;7.32;100.00
78485;BME280;67773;50.806;8.776;2024-03-29T08:47:31;97810.69;;;7.29;100.00
78485;BME280;67773;50.806;8.776;2024-03-29T08:49:56;97814.38;;;7.26;100.00
78485;BME280;67773;50.806;8.776;2024-03-29T08:52:22;97807.63;;;7.22;100.00
78485;BME280;67773;50.806;8.776;2024-03-29T08:54:47;97818.28;;;7.20;100.00
78485;BME280;67773;50.806;8.776;2024-03-29T08:57:13;97814.69;;;7.21;100.00
78485;BME280;67773;50.806;8.776;2024-03-29T08:59:38;97810.88;;;7.26;100.00
78485;BME280;67773;50.806;8.776;2024-03-29T09:02:04;97809.09;;;7.26;100.00
78485;BME280;67773;50.806;8.776;2024-03-29T09:04:31;97816.78;;;7.29;100.00
78485;BME280;67773;50.806;8.776;2024-03-29T09:06:59;97827.50;;;7.40;100.00
78485;BME280;67773;50.806;8.776;2024-03-29T09:09:24;97815.03;;;7.42;100.00
78485;BME280;67773;50.806;8.776;2024-03-29T09:11:49;97831.00;;;7.41;100.00
78485;BME280;67773;50.806;8.776;2024-03-29T09:14:15;97821.91;;;7.45;100.00
78485;BME280;67773;50.806;8.776;2024-03-29T09:16:40;97832.69;;;7.42;100.00
78485;BME280;67773;50.806;8.776;2024-03-29T09:19:06;97835.72;;;7.48;100.00
78485;BME280;67773;50.806;8.776;2024-03-29T09:21:31;97834.78;;;7.49;100.00
78485;BME280;67773;50.806;8.776;2024-03-29T09:23:57;97831.22;;;7.50;100.00
78485;BME280;67773;50.806;8.776;2024-03-29T09:26:22;97827.84;;;7.61;100.00
78485;BME280;67773;50.806;8.776;2024-03-29T09:28:48;97829.41;;;7.76;100.00
78485;BME280;67773;50.806;8.776;2024-03-29T09:31:13;97835.41;;;7.91;100.00
78485;BME280;67773;50.806;8.776;2024-03-29T09:33:38;97842.91;;;8.10;100.00
78485;BME280;67773;50.806;8.776;2024-03-29T09:36:04;97843.88;;;8.09;100.00
78485;BME280;67773;50.806;8.776;2024-03-29T09:38:29;97842.00;;;7.86;100.00
78485;BME280;67773;50.806;8.776;2024-03-29T09:41:25;97852.78;;;7.82;100.00
78485;BME280;67773;50.806;8.776;2024-03-29T09:43:49;97854.03;;;8.02;100.00
78485;BME280;67773;50.806;8.776;2024-03-29T09:46:16;97841.97;;;7.98;100.00
78485;BME280;67773;50.806;8.776;2024-03-29T09:48:44;97844.09;;;8.06;100.00
78485;BME280;67773;50.806;8.776;2024-03-29T09:51:12;97844.06;;;8.19;100.00
78485;BME280;67773;50.806;8.776;2024-03-29T09:53:42;97839.63;;;8.45;100.00
78485;BME280;67773;50.806;8.776;2024-03-29T09:56:08;97836.22;;;8.55;100.00
78485;BME280;67773;50.806;8.776;2024-03-29T09:58:35;97833.50;;;8.68;100.00
78485;BME280;67773;50.806;8.776;2024-03-29T10:01:03;97838.56;;;8.71;100.00
78485;BME280;67773;50.806;8.776;2024-03-29T10:03:29;97838.16;;;8.64;100.00
78485;BME280;67773;50.806;8.776;2024-03-29T10:05:59;97842.28;;;8.68;100.00
78485;BME280;67773;50.806;8.776;2024-03-29T10:08:28;97849.44;;;8.79;100.00
78485;BME280;67773;50.806;8.776;2024-03-29T10:10:56;97853.25;;;8.75;100.00
78485;BME280;67773;50.806;8.776;2024-03-29T10:13:21;97829.91;;;8.93;100.00
78485;BME280;67773;50.806;8.776;2024-03-29T10:15:51;97832.03;;;9.12;100.00
78485;BME280;67773;50.806;8.776;2024-03-29T10:18:19;97826.59;;;9.02;100.00
78485;BME280;67773;50.806;8.776;2024-03-29T10:20:45;97831.47;;;9.19;100.00
78485;BME280;67773;50.806;8.776;2024-03-29T10:23:11;97831.06;;;9.13;100.00
78485;BME280;67773;50.806;8.776;2024-03-29T10:25:36;97834.00;;;9.21;100.00
78485;BME280;67773;50.806;8.776;2024-03-29T10:28:02;97839.56;;;9.29;100.00
78485;BME280;67773;50.806;8.776;2024-03-29T10:30:28;97833.22;;;9.43;100.00
78485;BME280;67773;50.806;8.776;2024-03-29T10:32:56;97815.97;;;9.26;100.00
78485;BME280;67773;50.806;8.776;2024-03-29T10:35:22;97827.63;;;9.23;100.00
78485;BME280;67773;50.806;8.776;2024-03-29T10:37:49;97812.84;;;9.21;100.00
78485;BME280;67773;50.806;8.776;2024-03-29T10:40:15;97809.06;;;9.12;100.00
78485;BME280;67773;50.806;8.776;2024-03-29T10:42:43;97823.72;;;9.40;100.00
78485;BME280;67773;50.806;8.776;2024-03-29T10:45:09;97816.50;;;9.42;100.00
78485;BME280;67773;50.806;8.776;2024-03-29T10:47:35;97811.00;;;9.57;100.00
78485;BME280;67773;50.806;8.776;2024-03-29T10:50:01;97808.16;;;9.36;100.00
78485;BME280;67773;50.806;8.776;2024-03-29T10:52:30;97819.53;;;9.49;100.00
78485;BME280;67773;50.806;8.776;2024-03-29T10:54:56;97821.94;;;9.17;100.00
78485;BME280;67773;50.806;8.776;2024-03-29T10:57:26;97824.88;;;9.25;100.00
78485;BME280;67773;50.806;8.776;2024-03-29T11:00:12;97803.59;;;9.38;100.00
78485;BME280;67773;50.806;8.776;2024-03-29T11:03:13;97812.78;;;9.56;100.00
78485;BME280;67773;50.806;8.776;2024-03-29T11:05:45;97806.34;;;9.71;100.00
78485;BME280;67773;50.806;8.776;2024-03-29T11:08:11;97807.97;;;9.50;100.00
78485;BME280;67773;50.806;8.776;2024-03-29T11:10:44;97806.88;;;9.41;100.00
78485;BME280;67773;50.806;8.776;2024-03-29T11:13:23;97808.59;;;9.53;100.00
78485;BME280;67773;50.806;8.776;2024-03-29T11:15:51;97812.25;;;10.20;100.00
78485;BME280;67773;50.806;8.776;2024-03-29T11:18:18;97805.72;;;10.57;100.00
78485;BME280;67773;50.806;8.776;2024-03-29T11:20:46;97801.09;;;10.70;100.00
78485;BME280;67773;50.806;8.776;2024-03-29T11:23:17;97811.91;;;10.90;100.00
78485;BME280;67773;50.806;8.776;2024-03-29T11:25:51;97814.88;;;11.08;100.00
78485;BME280;67773;50.806;8.776;2024-03-29T11:30:58;97819.81;;;10.58;100.00
78485;BME280;67773;50.806;8.776;2024-03-29T11:33:30;97812.75;;;10.47;100.00
78485;BME280;67773;50.806;8.776;2024-03-29T11:35:56;97833.56;;;10.07;100.00
78485;BME280;67773;50.806;8.776;2024-03-29T11:38:22;97814.41;;;9.92;100.00
78485;BME280;67773;50.806;8.776;2024-03-29T11:41:17;97829.63;;;10.01;100.00
78485;BME280;67773;50.806;8.776;2024-03-29T11:43:43;97834.22;;;10.22;100.00
78485;BME280;67773;50.806;8.776;2024-03-29T11:46:10;97852.25;;;10.05;100.00
78485;BME280;67773;50.806;8.776;2024-03-29T11:48:36;97843.81;;;10.00;100.00
78485;BME280;67773;50.806;8.776;2024-03-29T11:51:03;97822.84;;;10.20;100.00
78485;BME280;67773;50.806;8.776;2024-03-29T11:53:29;97838.53;;;10.45;100.00
78485;BME280;67773;50.806;8.776;2024-03-29T11:55:57;97844.19;;;10.18;100.00
78485;BME280;67773;50.806;8.776;2024-03-29T11:58:24;97865.63;;;10.04;100.00
78485;BME280;67773;50.806;8.776;2024-03-29T12:00:51;97865.59;;;9.81;100.00
78485;BME280;67773;50.806;8.776;2024-03-29T12:03:17;97898.41;;;9.57;100.00
78485;BME280;67773;50.806;8.776;2024-03-29T12:05:44;97897.78;;;9.53;100.00
78485;BME280;67773;50.806;8.776;2024-03-29T12:08:10;97910.41;;;9.25;100.00
78485;BME280;67773;50.806;8.776;2024-03-29T12:10:36;97904.97;;;9.16;100.00
78485;BME280;67773;50.806;8.776;2024-03-29T12:13:04;97902.47;;;9.02;100.00
78485;BME280;67773;50.806;8.776;2024-03-29T12:15:29;97894.59;;;8.89;100.00
78485;BME280;67773;50.806;8.776;2024-03-29T12:17:56;97895.88;;;8.83;100.00
78485;BME280;67773;50.806;8.776;2024-03-29T12:20:22;97891.03;;;8.77;100.00
78485;BME280;67773;50.806;8.776;2024-03-29T12:22:48;97885.22;;;8.72;100.00
78485;BME280;67773;50.806;8.776;2024-03-29T12:25:13;97887.13;;;8.70;100.00
78485;BME280;67773;50.806;8.776;2024-03-29T12:27:38;97895.41;;;8.65;100.00
78485;BME280;67773;50.806;8.776;2024-03-29T12:30:05;97906.94;;;8.64;100.00
78485;BME280;67773;50.806;8.776;2024-03-29T12:32:31;97908.94;;;8.61;100.00
78485;BME280;67773;50.806;8.776;2024-03-29T12:35:09;97903.66;;;8.61;100.00
78485;BME280;67773;50.806;8.776;2024-03-29T12:37:35;97900.72;;;8.65;100.00
78485;BME280;67773;50.806;8.776;2024-03-29T12:40:01;97910.22;;;8.68;100.00
78485;BME280;67773;50.806;8.776;2024-03-29T12:42:30;97928.56;;;8.82;100.00
78485;BME280;67773;50.806;8.776;2024-03-29T12:44:56;97935.38;;;8.74;100.00
78485;BME280;67773;50.806;8.776;2024-03-29T12:47:21;97934.31;;;8.76;100.00
78485;BME280;67773;50.806;8.776;2024-03-29T12:49:48;97928.16;;;8.88;100.00
78485;BME280;67773;50.806;8.776;2024-03-29T12:52:13;97920.09;;;8.90;100.00
78485;BME280;67773;50.806;8.776;2024-03-29T12:54:38;97927.25;;;9.01;100.00
78485;BME280;67773;50.806;8.776;2024-03-29T12:57:04;97925.56;;;9.00;100.00
78485;BME280;67773;50.806;8.776;2024-03-29T12:59:29;97918.13;;;9.05;100.00